createdAt,value
2018-12-03T00:02:17.129Z,38.63
2018-12-03T00:04:48.533Z,35.67
2018-12-03T00:07:21.659Z,36.40
2018-12-03T00:09:52.844Z,33.50
2018-12-03T00:12:24.683Z,36.53
2018-12-03T00:14:55.869Z,33.60
2018-12-03T00:17:27.379Z,34.70
2018-12-03T00:19:58.532Z,33.50
2018-12-03T00:22:29.617Z,33.60
2018-12-03T00:25:00.718Z,33.93
2018-12-03T00:27:32.661Z,34.77
2018-12-03T00:30:03.641Z,34.83
2018-12-03T00:32:34.690Z,32.63
2018-12-03T00:35:07.034Z,34.83
2018-12-03T00:37:38.449Z,35.60
2018-12-03T00:40:09.558Z,32.53
2018-12-03T00:42:41.258Z,30.93
2018-12-03T00:45:12.168Z,33.17
2018-12-03T00:47:43.703Z,32.23
2018-12-03T00:50:14.737Z,32.83
2018-12-03T00:52:46.212Z,34.80
2018-12-03T00:55:17.910Z,40.17
2018-12-03T00:57:49.782Z,36.47
2018-12-03T01:00:20.894Z,35.73
2018-12-03T01:02:52.218Z,35.10
2018-12-03T01:05:23.394Z,34.70
2018-12-03T01:07:54.861Z,32.70
2018-12-03T01:10:26.191Z,34.43
2018-12-03T01:12:57.630Z,38.03
2018-12-03T01:15:29.074Z,34.50
2018-12-03T01:18:00.902Z,34.00
2018-12-03T01:20:32.082Z,34.93
2018-12-03T01:23:03.498Z,37.83
2018-12-03T01:25:34.788Z,36.67
2018-12-03T01:28:06.870Z,37.13
2018-12-03T01:30:37.978Z,36.23
2018-12-03T01:33:09.523Z,35.90
2018-12-03T01:35:40.561Z,42.77
2018-12-03T01:38:12.017Z,34.07
2018-12-03T01:40:43.053Z,36.33
2018-12-03T01:43:14.817Z,37.33
2018-12-03T01:45:45.810Z,42.60
2018-12-03T01:48:17.314Z,35.20
2018-12-03T01:50:48.697Z,39.13
2018-12-03T01:53:20.429Z,36.83
2018-12-03T01:55:52.642Z,39.83
2018-12-03T01:58:24.145Z,40.53
2018-12-03T02:00:55.191Z,38.40
2018-12-03T02:03:26.586Z,36.97
2018-12-03T02:05:58.085Z,37.57
2018-12-03T02:08:29.619Z,37.67
2018-12-03T02:11:00.533Z,37.67
2018-12-03T02:13:31.938Z,38.30
2018-12-03T02:16:03.046Z,39.87
2018-12-03T02:18:34.550Z,39.70
2018-12-03T02:21:05.610Z,41.83
2018-12-03T02:23:37.165Z,39.57
2018-12-03T02:26:08.194Z,40.07
2018-12-03T02:28:39.446Z,41.57
2018-12-03T02:31:10.654Z,38.60
2018-12-03T02:33:42.006Z,38.43
2018-12-03T02:36:13.286Z,37.73
2018-12-03T02:38:45.264Z,37.33
2018-12-03T02:41:16.306Z,38.43
2018-12-03T02:43:48.051Z,40.27
2018-12-03T02:46:19.049Z,38.87
2018-12-03T02:48:50.679Z,40.17
2018-12-03T02:51:22.174Z,38.33
2018-12-03T02:53:53.715Z,39.50
2018-12-03T02:56:26.074Z,39.33
2018-12-03T02:58:57.699Z,38.73
2018-12-03T03:01:29.932Z,39.83
2018-12-03T03:04:01.521Z,40.83
2018-12-03T03:06:32.578Z,40.47
2018-12-03T03:09:05.484Z,42.37
2018-12-03T03:11:36.586Z,37.80
2018-12-03T03:14:08.623Z,41.83
2018-12-03T03:16:39.790Z,39.70
2018-12-03T03:19:11.271Z,42.13
2018-12-03T03:21:42.586Z,40.20
2018-12-03T03:24:13.754Z,40.20
2018-12-03T03:26:45.072Z,37.80
2018-12-03T03:29:16.414Z,39.40
2018-12-03T03:31:48.025Z,41.83
2018-12-03T03:34:19.792Z,38.93
2018-12-03T03:36:51.358Z,35.53
2018-12-03T03:39:22.974Z,33.17
2018-12-03T03:41:54.080Z,34.20
2018-12-03T03:44:25.445Z,28.70
2018-12-03T03:46:56.621Z,28.13
2018-12-03T03:49:28.211Z,27.43
2018-12-03T03:51:59.213Z,27.50
2018-12-03T03:54:30.818Z,26.77
2018-12-03T03:57:04.369Z,27.53
2018-12-03T03:59:35.687Z,30.77
2018-12-03T04:02:06.919Z,27.23
2018-12-03T04:04:38.588Z,30.57
2018-12-03T04:07:09.771Z,30.00
2018-12-03T04:09:41.149Z,30.00
2018-12-03T04:12:12.258Z,32.23
2018-12-03T04:14:43.923Z,30.17
2018-12-03T04:17:15.065Z,30.00
2018-12-03T04:19:46.272Z,33.50
2018-12-03T04:22:17.422Z,32.33
2018-12-03T04:24:48.782Z,35.97
2018-12-03T04:27:19.997Z,38.93
2018-12-03T04:29:51.269Z,36.50
2018-12-03T04:32:22.516Z,36.20
2018-12-03T04:34:53.786Z,37.77
2018-12-03T04:37:25.178Z,35.53
2018-12-03T04:39:56.548Z,35.20
2018-12-03T04:42:27.851Z,40.47
2018-12-03T04:44:59.475Z,35.63
2018-12-03T04:47:30.707Z,37.10
2018-12-03T04:50:02.190Z,37.23
2018-12-03T04:52:33.450Z,42.53
2018-12-03T04:55:05.759Z,38.17
2018-12-03T04:57:39.101Z,38.93
2018-12-03T05:00:16.086Z,39.03
2018-12-03T05:02:48.222Z,41.03
2018-12-03T05:05:19.635Z,35.70
2018-12-03T05:07:50.743Z,39.60
2018-12-03T05:10:23.018Z,40.63
2018-12-03T05:12:54.767Z,36.37
2018-12-03T05:15:26.178Z,38.77
2018-12-03T05:17:57.442Z,38.87
2018-12-03T05:20:29.424Z,34.47
2018-12-03T05:23:00.673Z,34.63
2018-12-03T05:25:32.333Z,35.93
2018-12-03T05:28:03.413Z,36.47
2018-12-03T05:30:34.837Z,34.03
2018-12-03T05:33:06.154Z,33.50
2018-12-03T05:35:37.534Z,40.40
2018-12-03T05:38:08.774Z,31.60
2018-12-03T05:40:40.383Z,29.60
2018-12-03T05:43:11.402Z,28.67
2018-12-03T05:45:42.778Z,31.17
2018-12-03T05:48:14.390Z,28.40
2018-12-03T05:50:46.616Z,28.37
2018-12-03T05:53:17.802Z,27.33
2018-12-03T05:55:49.911Z,26.33
2018-12-03T05:58:22.722Z,28.33
2018-12-03T06:00:54.302Z,33.13
2018-12-03T06:03:25.764Z,33.93
2018-12-03T06:05:57.215Z,27.13
2018-12-03T06:08:28.230Z,34.80
2018-12-03T06:10:59.731Z,25.47
2018-12-03T06:13:31.209Z,22.80
2018-12-03T06:16:03.095Z,26.93
2018-12-03T06:18:34.305Z,24.93
2018-12-03T06:21:05.733Z,21.50
2018-12-03T06:23:37.126Z,29.80
2018-12-03T06:26:08.598Z,19.07
2018-12-03T06:28:40.957Z,20.70
2018-12-03T06:31:12.850Z,25.17
2018-12-03T06:33:44.106Z,21.40
2018-12-03T06:36:15.582Z,24.60
2018-12-03T06:38:46.774Z,19.50
2018-12-03T06:41:17.968Z,18.87
2018-12-03T06:43:49.323Z,17.77
2018-12-03T06:46:20.848Z,17.50
2018-12-03T06:48:52.107Z,15.40
2018-12-03T06:51:23.522Z,17.43
2018-12-03T06:53:54.688Z,25.37
2018-12-03T06:56:26.058Z,14.63
2018-12-03T06:58:58.075Z,18.70
2018-12-03T07:01:29.599Z,14.37
2018-12-03T07:04:00.569Z,14.37
2018-12-03T07:06:32.230Z,12.73
2018-12-03T07:09:03.298Z,20.13
2018-12-03T07:11:34.671Z,12.13
2018-12-03T07:14:06.114Z,13.30
2018-12-03T07:16:37.692Z,19.10
2018-12-03T07:19:09.301Z,14.80
2018-12-03T07:21:40.718Z,15.10
2018-12-03T07:24:11.942Z,11.33
2018-12-03T07:26:43.654Z,14.23
2018-12-03T07:29:15.241Z,15.87
2018-12-03T07:31:46.826Z,13.00
2018-12-03T07:34:19.946Z,18.10
2018-12-03T07:36:51.786Z,11.10
2018-12-03T07:39:22.990Z,15.40
2018-12-03T07:41:54.457Z,14.73
2018-12-03T07:44:26.017Z,12.10
2018-12-03T07:46:57.422Z,15.10
2018-12-03T07:49:28.726Z,9.67
2018-12-03T07:52:00.755Z,16.97
2018-12-03T07:54:32.413Z,12.43
2018-12-03T07:57:04.361Z,10.60
2018-12-03T07:59:35.690Z,10.23
2018-12-03T08:02:07.494Z,12.37
2018-12-03T08:04:38.735Z,10.37
2018-12-03T08:07:10.162Z,16.87
2018-12-03T08:09:43.180Z,16.47
2018-12-03T08:12:14.860Z,15.30
2018-12-03T08:14:46.006Z,13.30
2018-12-03T08:17:17.527Z,14.37
2018-12-03T08:19:56.471Z,15.77
2018-12-03T08:22:24.750Z,14.50
2018-12-03T08:24:55.813Z,10.50
2018-12-03T08:27:27.242Z,12.03
2018-12-03T08:29:58.267Z,12.70
2018-12-03T08:32:29.782Z,12.40
2018-12-03T08:35:02.762Z,18.77
2018-12-03T08:37:34.175Z,12.40
2018-12-03T08:40:06.713Z,13.07
2018-12-03T08:42:39.294Z,13.47
2018-12-03T08:45:10.414Z,12.20
2018-12-03T08:47:41.851Z,16.23
2018-12-03T08:50:21.190Z,13.63
2018-12-03T08:52:52.561Z,15.50
2018-12-03T08:55:23.829Z,15.20
2018-12-03T08:57:55.072Z,22.00
2018-12-03T09:00:30.943Z,16.90
2018-12-03T09:03:05.689Z,15.40
2018-12-03T09:05:38.681Z,12.17
2018-12-03T09:08:11.474Z,15.37
2018-12-03T09:10:43.527Z,19.77
2018-12-03T09:13:16.921Z,15.50
2018-12-03T09:15:54.054Z,19.23
2018-12-03T09:18:26.718Z,19.80
2018-12-03T09:20:57.610Z,16.00
2018-12-03T09:23:29.120Z,14.00
2018-12-03T09:26:00.170Z,16.03
2018-12-03T09:28:32.574Z,19.03
2018-12-03T09:31:05.732Z,13.60
2018-12-03T09:33:36.818Z,12.27
2018-12-03T09:36:11.810Z,16.40
2018-12-03T09:38:53.186Z,14.40
2018-12-03T09:41:24.570Z,15.47
2018-12-03T09:43:56.447Z,16.23
2018-12-03T09:46:27.620Z,17.10
2018-12-03T09:48:59.786Z,13.43
2018-12-03T09:51:34.699Z,14.13
2018-12-03T09:54:09.472Z,15.73
2018-12-03T09:56:44.907Z,18.33
2018-12-03T09:59:17.975Z,13.10
2018-12-03T10:01:50.318Z,15.33
2018-12-03T10:04:26.677Z,13.50
2018-12-03T10:06:57.865Z,17.10
2018-12-03T10:09:30.035Z,12.60
2018-12-03T10:12:01.646Z,12.00
2018-12-03T10:14:33.054Z,12.47
2018-12-03T10:17:04.318Z,13.23
2018-12-03T10:19:35.786Z,13.03
2018-12-03T10:22:07.550Z,12.30
2018-12-03T10:24:39.026Z,14.73
2018-12-03T10:27:13.874Z,14.10
2018-12-03T10:29:45.914Z,14.80
2018-12-03T10:32:19.538Z,13.87
2018-12-03T10:34:50.705Z,12.47
2018-12-03T10:37:23.277Z,15.17
2018-12-03T10:39:54.785Z,15.97
2018-12-03T10:42:26.009Z,14.57
2018-12-03T10:44:57.518Z,12.27
2018-12-03T10:47:28.741Z,16.37
2018-12-03T10:50:00.209Z,13.50
2018-12-03T10:53:20.370Z,12.20
2018-12-03T10:55:49.078Z,14.70
2018-12-03T10:58:17.602Z,16.90
2018-12-03T11:00:52.847Z,13.10
2018-12-03T11:03:23.499Z,14.30
2018-12-03T11:05:58.407Z,13.23
2018-12-03T11:08:26.917Z,13.60
2018-12-03T11:10:55.377Z,16.23
2018-12-03T11:13:24.338Z,14.20
2018-12-03T11:15:52.580Z,14.13
2018-12-03T11:18:21.158Z,14.87
2018-12-03T11:20:49.861Z,13.43
2018-12-03T11:23:18.326Z,16.53
2018-12-03T11:25:46.747Z,15.17
2018-12-03T11:28:15.802Z,18.17
2018-12-03T11:30:44.988Z,14.93
2018-12-03T11:33:15.949Z,15.83
2018-12-03T11:35:44.505Z,14.80
2018-12-03T11:38:13.333Z,13.50
2018-12-03T11:40:42.827Z,15.70
2018-12-03T11:43:11.410Z,14.47
2018-12-03T11:45:40.138Z,20.70
2018-12-03T11:48:08.810Z,14.43
2018-12-03T11:50:38.058Z,14.97
2018-12-03T11:53:06.647Z,16.00
2018-12-03T11:55:35.462Z,17.73
2018-12-03T11:58:03.918Z,12.70
2018-12-03T12:00:32.502Z,15.93
2018-12-03T12:03:01.396Z,15.60
2018-12-03T12:05:29.974Z,19.90
2018-12-03T12:07:58.462Z,13.60
2018-12-03T12:10:27.422Z,13.30
2018-12-03T12:12:55.874Z,16.13
2018-12-03T12:15:24.344Z,20.23
2018-12-03T12:17:53.314Z,14.50
2018-12-03T12:20:21.663Z,21.10
2018-12-03T12:22:50.070Z,17.67
2018-12-03T12:25:18.702Z,14.93
2018-12-03T12:27:47.143Z,12.90
2018-12-03T12:30:15.721Z,12.67
2018-12-03T12:32:44.158Z,20.97
2018-12-03T12:35:12.718Z,14.37
2018-12-03T12:37:41.447Z,13.50
2018-12-03T12:40:11.321Z,13.43
2018-12-03T12:42:39.801Z,13.20
2018-12-03T12:45:08.974Z,13.47
2018-12-03T12:47:37.789Z,13.90
2018-12-03T12:50:08.415Z,21.50
2018-12-03T12:52:36.857Z,17.30
2018-12-03T12:55:06.450Z,18.23
2018-12-03T12:57:34.974Z,16.07
2018-12-03T13:00:05.445Z,16.63
2018-12-03T13:02:34.494Z,14.23
2018-12-03T13:05:05.214Z,15.37
2018-12-03T13:07:33.715Z,14.43
2018-12-03T13:10:03.555Z,14.40
2018-12-03T13:12:32.108Z,13.40
2018-12-03T13:15:00.494Z,14.30
2018-12-03T13:17:29.390Z,13.73
2018-12-03T13:19:58.009Z,17.80
2018-12-03T13:22:31.006Z,16.83
2018-12-03T13:24:59.437Z,18.47
2018-12-03T13:27:28.131Z,16.37
2018-12-03T13:29:56.872Z,13.83
2018-12-03T13:32:25.501Z,13.10
2018-12-03T13:34:54.289Z,16.83
2018-12-03T13:37:22.901Z,18.10
2018-12-03T13:39:51.490Z,16.63
2018-12-03T13:42:21.755Z,21.10
2018-12-03T13:44:50.434Z,13.10
2018-12-03T13:47:18.960Z,15.10
2018-12-03T13:49:47.557Z,13.93
2018-12-03T13:52:16.270Z,15.10
2018-12-03T13:54:44.818Z,18.30
2018-12-03T13:57:13.471Z,18.80
2018-12-03T13:59:42.115Z,17.27
2018-12-03T14:02:13.130Z,20.83
2018-12-03T14:04:42.078Z,13.40
2018-12-03T14:07:14.559Z,24.17
2018-12-03T14:09:43.238Z,24.50
2018-12-03T14:12:11.674Z,14.67
2018-12-03T14:14:40.087Z,18.97
2018-12-03T14:17:08.938Z,19.50
2018-12-03T14:19:37.549Z,21.03
2018-12-03T14:22:06.644Z,20.87
2018-12-03T14:24:35.357Z,17.00
2018-12-03T14:27:03.897Z,18.77
2018-12-03T14:29:32.678Z,23.03
2018-12-03T14:32:01.526Z,22.33
2018-12-03T14:34:30.058Z,16.63
2018-12-03T14:36:58.750Z,22.93
2018-12-03T14:39:27.386Z,18.10
2018-12-03T14:41:55.941Z,16.63
2018-12-03T14:44:25.058Z,13.23
2018-12-03T14:46:54.006Z,17.23
2018-12-03T14:49:22.762Z,13.43
2018-12-03T14:51:51.102Z,23.67
2018-12-03T14:54:20.175Z,16.00
2018-12-03T14:56:48.857Z,18.37
2018-12-03T14:59:17.399Z,17.50
2018-12-03T15:01:46.538Z,15.93
2018-12-03T15:04:15.197Z,17.43
2018-12-03T15:06:43.368Z,15.30
2018-12-03T15:09:11.749Z,17.30
2018-12-03T15:11:40.511Z,12.87
2018-12-03T15:14:08.924Z,14.10
2018-12-03T15:16:37.774Z,16.63
2018-12-03T15:19:11.478Z,13.60
2018-12-03T15:21:37.061Z,13.93
2018-12-03T15:24:05.701Z,14.73
2018-12-03T15:26:34.413Z,23.33
2018-12-03T15:29:03.562Z,13.33
2018-12-03T15:31:32.530Z,15.23
2018-12-03T15:34:01.113Z,17.37
2018-12-03T15:36:29.622Z,17.77
2018-12-03T15:38:58.312Z,16.13
2018-12-03T15:41:26.870Z,13.83
2018-12-03T15:43:55.602Z,18.57
2018-12-03T15:46:25.627Z,16.97
2018-12-03T15:48:54.158Z,14.10
2018-12-03T15:51:22.746Z,14.07
2018-12-03T15:53:51.505Z,16.40
2018-12-03T15:56:20.018Z,21.70
2018-12-03T15:58:48.700Z,21.03
2018-12-03T16:01:17.642Z,19.07
2018-12-03T16:03:46.210Z,13.83
2018-12-03T16:06:14.835Z,18.20
2018-12-03T16:08:43.510Z,16.33
2018-12-03T16:11:11.963Z,15.30
2018-12-03T16:13:40.723Z,15.30
2018-12-03T16:16:09.437Z,14.30
2018-12-03T16:18:38.022Z,16.67
2018-12-03T16:21:06.442Z,15.50
2018-12-03T16:23:35.478Z,18.47
2018-12-03T16:26:04.294Z,16.60
2018-12-03T16:28:32.670Z,14.40
2018-12-03T16:31:02.307Z,16.20
2018-12-03T16:33:30.842Z,17.83
2018-12-03T16:35:59.450Z,15.17
2018-12-03T16:38:28.275Z,16.83
2018-12-03T16:40:56.798Z,13.70
2018-12-03T16:43:25.455Z,19.10
2018-12-03T16:45:54.301Z,17.83
2018-12-03T16:48:23.708Z,16.33
2018-12-03T16:50:52.191Z,15.83
2018-12-03T16:53:21.054Z,15.80
2018-12-03T16:55:49.743Z,16.20
2018-12-03T16:58:18.255Z,16.23
2018-12-03T17:00:47.217Z,15.13
2018-12-03T17:03:15.979Z,16.17
2018-12-03T17:05:44.488Z,16.37
2018-12-03T17:08:13.486Z,15.60
2018-12-03T17:10:42.506Z,17.83
2018-12-03T17:13:11.060Z,16.53
2018-12-03T17:15:39.859Z,14.90
2018-12-03T17:18:08.465Z,25.93
2018-12-03T17:20:36.886Z,15.47
2018-12-03T17:23:05.922Z,19.03
2018-12-03T17:25:34.703Z,19.27
2018-12-03T17:28:03.382Z,16.63
2018-12-03T17:30:32.106Z,16.30
2018-12-03T17:33:00.765Z,16.13
2018-12-03T17:35:29.278Z,19.87
2018-12-03T17:37:58.102Z,17.47
2018-12-03T17:40:26.632Z,17.60
2018-12-03T17:42:55.243Z,17.73
2018-12-03T17:45:23.947Z,17.30
2018-12-03T17:47:52.593Z,19.83
2018-12-03T17:50:22.123Z,18.87
2018-12-03T17:52:51.298Z,22.53
2018-12-03T17:55:19.638Z,17.90
2018-12-03T17:57:48.177Z,22.77
2018-12-03T18:00:17.791Z,26.33
2018-12-03T18:02:46.517Z,19.83
2018-12-03T18:05:15.034Z,23.27
2018-12-03T18:07:43.953Z,26.80
2018-12-03T18:10:12.506Z,20.30
2018-12-03T18:12:40.999Z,22.13
2018-12-03T18:15:09.611Z,22.77
2018-12-03T18:17:38.089Z,22.77
2018-12-03T18:20:06.694Z,24.60
2018-12-03T18:22:35.470Z,27.10
2018-12-03T18:25:04.130Z,23.00
2018-12-03T18:27:32.640Z,23.70
2018-12-03T18:30:01.313Z,24.07
2018-12-03T18:32:29.749Z,22.87
2018-12-03T18:34:58.285Z,23.83
2018-12-03T18:37:27.381Z,22.90
2018-12-03T18:39:55.867Z,24.20
2018-12-03T18:42:24.421Z,24.93
2018-12-03T18:44:53.167Z,21.87
2018-12-03T18:47:21.723Z,26.17
2018-12-03T18:49:50.077Z,24.93
2018-12-03T18:52:19.778Z,24.20
2018-12-03T18:54:48.170Z,24.23
2018-12-03T18:57:16.954Z,24.70
2018-12-03T18:59:45.803Z,24.13
2018-12-03T19:02:14.364Z,24.13
2018-12-03T19:04:43.017Z,24.70
2018-12-03T19:07:11.838Z,26.50
2018-12-03T19:09:40.493Z,25.43
2018-12-03T19:12:09.086Z,24.80
2018-12-03T19:14:37.793Z,24.77
2018-12-03T19:17:06.525Z,23.87
2018-12-03T19:19:34.945Z,24.30
2018-12-03T19:22:03.774Z,25.43
2018-12-03T19:24:32.238Z,22.80
2018-12-03T19:27:00.822Z,25.30
2018-12-03T19:29:29.638Z,22.90
2018-12-03T19:31:58.198Z,29.47
2018-12-03T19:34:26.617Z,30.27
2018-12-03T19:36:56.327Z,25.50
2018-12-03T19:39:25.898Z,27.47
2018-12-03T19:41:55.830Z,25.20
2018-12-03T19:44:26.039Z,25.70
2018-12-03T19:46:55.793Z,24.70
2018-12-03T19:49:25.562Z,22.40
2018-12-03T19:51:54.891Z,27.30
2018-12-03T19:54:27.933Z,25.30
2018-12-03T19:56:57.151Z,27.60
2018-12-03T19:59:26.871Z,26.07
2018-12-03T20:01:56.506Z,27.77
2018-12-03T20:04:31.963Z,29.40
2018-12-03T20:07:01.298Z,26.07
2018-12-03T20:09:30.614Z,26.77
2018-12-03T20:12:00.823Z,31.27
2018-12-03T20:14:29.478Z,25.83
2018-12-03T20:16:59.541Z,30.30
2018-12-03T20:19:28.843Z,24.73
2018-12-03T20:21:59.031Z,23.87
2018-12-03T20:24:29.430Z,24.33
2018-12-03T20:27:00.634Z,24.93
2018-12-03T20:29:31.377Z,30.47
2018-12-03T20:32:05.271Z,23.70
2018-12-03T20:34:37.043Z,24.80
2018-12-03T20:37:10.586Z,25.67
2018-12-03T20:39:43.967Z,24.57
2018-12-03T20:42:15.890Z,28.80
2018-12-03T20:44:46.486Z,29.73
2018-12-03T20:47:16.470Z,26.67
2018-12-03T20:49:47.094Z,27.83
2018-12-03T20:52:16.010Z,30.43
2018-12-03T20:54:48.179Z,30.40
2018-12-03T20:57:17.938Z,26.17
2018-12-03T20:59:47.955Z,25.63
2018-12-03T21:02:18.230Z,25.40
2018-12-03T21:04:48.214Z,27.80
2018-12-03T21:07:17.946Z,30.50
2018-12-03T21:09:47.527Z,25.70
2018-12-03T21:12:18.418Z,27.60
2018-12-03T21:14:47.725Z,25.03
2018-12-03T21:17:18.359Z,39.03
2018-12-03T21:19:50.530Z,26.17
2018-12-03T21:22:23.158Z,28.70
2018-12-03T21:24:53.581Z,28.50
2018-12-03T21:27:24.438Z,25.03
2018-12-03T21:29:54.422Z,25.20
2018-12-03T21:32:23.842Z,27.63
2018-12-03T21:34:53.658Z,27.60
2018-12-03T21:37:23.413Z,27.50
2018-12-03T21:39:53.490Z,29.13
2018-12-03T21:42:26.371Z,30.83
2018-12-03T21:44:56.630Z,30.63
2018-12-03T21:47:27.285Z,32.97
2018-12-03T21:49:57.926Z,30.80
2018-12-03T21:52:27.571Z,35.00
2018-12-03T21:54:58.286Z,38.17
2018-12-03T21:57:28.453Z,36.17
2018-12-03T21:59:59.320Z,38.63
2018-12-03T22:02:28.985Z,40.40
2018-12-03T22:04:58.170Z,39.83
2018-12-03T22:07:28.274Z,36.57
2018-12-03T22:09:58.198Z,38.67
2018-12-03T22:12:27.357Z,37.73
2018-12-03T22:14:56.439Z,39.13
2018-12-03T22:17:27.442Z,43.00
2018-12-03T22:19:56.550Z,43.40
2018-12-03T22:22:26.262Z,48.47
2018-12-03T22:24:56.178Z,47.23
2018-12-03T22:27:25.752Z,48.57
2018-12-03T22:29:55.446Z,45.87
2018-12-03T22:32:25.254Z,43.47
2018-12-03T22:34:55.172Z,46.40
2018-12-03T22:37:25.489Z,47.60
2018-12-03T22:39:54.757Z,46.27
2018-12-03T22:42:25.169Z,47.70
2018-12-03T22:44:54.999Z,51.50
2018-12-03T22:47:25.554Z,49.90
2018-12-03T22:49:55.927Z,45.37
2018-12-03T22:52:28.626Z,52.57
2018-12-03T22:55:00.055Z,50.50
2018-12-03T22:57:29.584Z,50.40
2018-12-03T22:59:59.123Z,50.00
2018-12-03T23:02:28.795Z,52.53
2018-12-03T23:04:58.118Z,50.20
2018-12-03T23:07:27.299Z,49.80
2018-12-03T23:09:58.161Z,55.53
2018-12-03T23:12:27.554Z,53.50
2018-12-03T23:14:57.750Z,53.93
2018-12-03T23:17:26.493Z,55.67
2018-12-03T23:19:56.067Z,52.73
2018-12-03T23:22:24.682Z,56.90
2018-12-03T23:24:53.269Z,54.47
2018-12-03T23:27:21.754Z,54.40
2018-12-03T23:29:50.746Z,56.67
2018-12-03T23:32:19.174Z,57.10
2018-12-03T23:34:47.714Z,58.70
2018-12-03T23:37:16.530Z,55.10
2018-12-03T23:39:45.129Z,58.10
2018-12-03T23:42:13.646Z,60.20
2018-12-03T23:44:43.033Z,58.07
2018-12-03T23:47:11.639Z,59.93
2018-12-03T23:49:40.083Z,60.90
2018-12-03T23:52:09.242Z,62.43
2018-12-03T23:54:37.906Z,67.30
2018-12-03T23:57:07.306Z,67.37
2018-12-03T23:59:36.126Z,67.67
